Osage, Wyoming
Current Conditions -  °F | °C
As of 1:55 AM on Sunday 26 Oct 2014 (Local Time) from KECS Reporting Station
Clear Clear  
Wind Chill: 59°   Ceiling: Unl
Heat Index: 59°   Visibility: 10mi
Dew Point: 28°   Wind: 13mph
Humidity: 31%   Direction: 120°ESE
Pressure: 29.8"   Gusts: 30mph
Location:  43.98°N, 104.42°W
Report Text: KECS 260755Z AUTO 12011G26KT 10SM CLR 15/M02 A2980 RMK AO2
Loading
Personal Weather Stations






























Interactive Weather Map New forecast layout! Learn more

10-Day Weather Forecast

Advertisements
Track Severe Weather on mobile